createdAt,value
2019-05-25T00:02:03.750Z,29.30
2019-05-25T00:04:35.131Z,29.40
2019-05-25T00:07:07.911Z,29.40
2019-05-25T00:09:40.964Z,29.40
2019-05-25T00:12:13.583Z,29.40
2019-05-25T00:14:46.650Z,29.40
2019-05-25T00:17:20.019Z,29.40
2019-05-25T00:19:52.507Z,29.40
2019-05-25T00:22:24.317Z,29.40
2019-05-25T00:24:56.719Z,29.40
2019-05-25T00:27:29.306Z,29.40
2019-05-25T00:30:02.121Z,29.50
2019-05-25T00:32:36.717Z,29.60
2019-05-25T00:35:09.956Z,29.60
2019-05-25T00:37:43.299Z,29.70
2019-05-25T00:40:16.149Z,29.80
2019-05-25T00:42:49.209Z,29.90
2019-05-25T00:45:31.708Z,29.90
2019-05-25T00:48:05.303Z,29.90
2019-05-25T00:50:38.420Z,30.00
2019-05-25T00:53:11.106Z,30.00
2019-05-25T00:55:43.989Z,30.00
2019-05-25T00:58:16.391Z,30.10
2019-05-25T01:00:49.022Z,30.20
2019-05-25T01:03:21.500Z,30.30
2019-05-25T01:05:54.478Z,30.50
2019-05-25T01:08:27.278Z,30.60
2019-05-25T01:10:58.589Z,30.60
2019-05-25T01:13:31.316Z,30.70
2019-05-25T01:16:04.068Z,30.90
2019-05-25T01:18:36.624Z,31.10
2019-05-25T01:21:09.740Z,31.20
2019-05-25T01:23:42.378Z,31.40
2019-05-25T01:26:15.631Z,31.60
2019-05-25T01:28:48.335Z,31.40
2019-05-25T01:31:21.297Z,31.20
2019-05-25T01:33:54.804Z,31.10
2019-05-25T01:36:37.766Z,31.00
2019-05-25T01:39:10.613Z,31.10
2019-05-25T01:41:44.868Z,31.10
2019-05-25T01:44:17.435Z,31.00
2019-05-25T01:46:50.338Z,30.90
2019-05-25T01:49:22.804Z,31.00
2019-05-25T01:51:55.416Z,31.40
2019-05-25T01:54:27.639Z,31.50
2019-05-25T01:57:00.585Z,31.80
2019-05-25T01:59:33.717Z,32.00
2019-05-25T02:02:06.699Z,32.10
2019-05-25T02:04:39.371Z,32.20
2019-05-25T02:07:12.786Z,32.40
2019-05-25T02:09:45.341Z,32.50
2019-05-25T02:12:17.647Z,32.80
2019-05-25T02:14:50.227Z,33.10
2019-05-25T02:17:22.857Z,33.50
2019-05-25T02:20:02.088Z,33.60
2019-05-25T02:22:37.279Z,33.80
2019-05-25T02:25:17.563Z,34.20
2019-05-25T02:27:44.182Z,34.50
2019-05-25T02:30:19.485Z,34.60
2019-05-25T02:32:52.551Z,34.80
2019-05-25T02:35:28.183Z,35.00
2019-05-25T02:38:00.514Z,35.00
2019-05-25T02:40:33.112Z,35.00
2019-05-25T02:43:08.311Z,35.20
2019-05-25T02:45:41.423Z,35.30
2019-05-25T02:48:14.585Z,35.20
2019-05-25T02:50:46.341Z,35.40
2019-05-25T02:53:19.099Z,35.60
2019-05-25T02:55:51.436Z,35.60
2019-05-25T02:58:24.568Z,35.50
2019-05-25T03:00:59.372Z,35.60
2019-05-25T03:03:32.300Z,35.40
2019-05-25T03:06:08.036Z,35.10
2019-05-25T03:08:41.654Z,35.20
2019-05-25T03:11:14.145Z,35.20
2019-05-25T03:13:48.121Z,35.20
2019-05-25T03:16:20.623Z,35.10
2019-05-25T03:18:53.797Z,35.10
2019-05-25T03:21:26.446Z,35.00
2019-05-25T03:23:59.185Z,35.00
2019-05-25T03:26:31.617Z,35.00
2019-05-25T03:29:04.569Z,35.00
2019-05-25T03:31:41.179Z,35.00
2019-05-25T03:34:16.305Z,35.20
2019-05-25T03:36:49.468Z,35.30
2019-05-25T03:39:25.979Z,35.50
2019-05-25T03:41:58.451Z,35.70
2019-05-25T03:44:30.376Z,35.70
2019-05-25T03:47:02.881Z,35.70
2019-05-25T03:49:35.807Z,35.70
2019-05-25T03:52:08.861Z,35.60
2019-05-25T03:54:41.830Z,35.60
2019-05-25T03:57:15.621Z,35.60
2019-05-25T03:59:48.440Z,35.70
2019-05-25T04:02:21.182Z,35.60
2019-05-25T04:04:56.649Z,35.80
2019-05-25T04:07:29.727Z,35.90
2019-05-25T04:10:02.905Z,36.00
2019-05-25T04:12:35.457Z,36.10
2019-05-25T04:15:09.436Z,36.20
2019-05-25T04:17:42.283Z,36.30
2019-05-25T04:20:15.292Z,36.10
2019-05-25T04:22:48.019Z,36.00
2019-05-25T04:25:20.971Z,36.00
2019-05-25T04:27:52.314Z,36.00
2019-05-25T04:30:25.384Z,35.90
2019-05-25T04:32:57.878Z,36.00
2019-05-25T04:35:29.552Z,36.00
2019-05-25T04:38:02.016Z,36.00
2019-05-25T04:40:37.869Z,35.80
2019-05-25T04:43:11.289Z,35.70
2019-05-25T04:45:44.372Z,35.70
2019-05-25T04:48:31.075Z,35.80
2019-05-25T04:51:04.027Z,35.80
2019-05-25T04:53:37.055Z,35.80
2019-05-25T04:56:09.785Z,35.80
2019-05-25T04:58:42.769Z,35.60
2019-05-25T05:01:15.807Z,35.50
2019-05-25T05:03:49.315Z,35.40
2019-05-25T05:06:21.995Z,35.40
2019-05-25T05:08:54.566Z,35.20
2019-05-25T05:11:26.169Z,35.10
2019-05-25T05:13:59.642Z,35.20
2019-05-25T05:16:32.657Z,35.20
2019-05-25T05:19:05.487Z,35.20
2019-05-25T05:21:37.446Z,35.20
2019-05-25T05:24:11.661Z,35.20
2019-05-25T05:26:55.812Z,35.40
2019-05-25T05:29:21.830Z,35.60
2019-05-25T05:31:54.695Z,35.80
2019-05-25T05:34:27.503Z,36.00
2019-05-25T05:37:02.254Z,36.10
2019-05-25T05:39:54.810Z,36.00
2019-05-25T05:42:29.431Z,36.10
2019-05-25T05:45:04.147Z,36.30
2019-05-25T05:47:38.445Z,36.50
2019-05-25T05:50:12.579Z,36.80
2019-05-25T05:52:45.482Z,37.20
2019-05-25T05:55:20.360Z,37.40
2019-05-25T05:57:54.125Z,37.70
2019-05-25T06:00:27.153Z,38.10
2019-05-25T06:02:59.726Z,38.30
2019-05-25T06:05:32.466Z,38.20
2019-05-25T06:08:06.521Z,38.10
2019-05-25T06:10:39.446Z,37.90
2019-05-25T06:13:12.327Z,38.10
2019-05-25T06:15:43.991Z,38.30
2019-05-25T06:18:18.471Z,38.40
2019-05-25T06:20:51.642Z,38.30
2019-05-25T06:23:25.506Z,38.20
2019-05-25T06:25:57.866Z,37.90
2019-05-25T06:28:30.403Z,37.80
2019-05-25T06:31:02.729Z,37.80
2019-05-25T06:33:35.274Z,38.10
2019-05-25T06:36:07.663Z,38.50
2019-05-25T06:38:40.426Z,39.00
2019-05-25T06:41:13.011Z,39.40
2019-05-25T06:43:47.082Z,39.20
2019-05-25T06:46:19.722Z,39.00
2019-05-25T06:48:53.109Z,38.90
2019-05-25T06:51:26.293Z,38.80
2019-05-25T06:53:59.238Z,38.80
2019-05-25T06:56:32.090Z,38.80
2019-05-25T06:59:05.033Z,38.70
2019-05-25T07:01:37.750Z,38.50
2019-05-25T07:04:09.833Z,38.30
2019-05-25T07:06:42.699Z,37.90
2019-05-25T07:09:16.085Z,37.70
2019-05-25T07:11:50.627Z,37.70
2019-05-25T07:14:23.657Z,38.20
2019-05-25T07:16:56.543Z,38.80
2019-05-25T07:19:29.785Z,39.60
2019-05-25T07:22:02.928Z,39.70
2019-05-25T07:24:35.384Z,39.70
2019-05-25T07:27:09.881Z,40.10
2019-05-25T07:29:42.751Z,40.70
2019-05-25T07:32:18.058Z,41.40
2019-05-25T07:34:51.384Z,41.70
2019-05-25T07:37:24.695Z,42.10
2019-05-25T07:39:57.037Z,42.30
2019-05-25T07:42:29.697Z,42.50
2019-05-25T07:45:02.685Z,42.20
2019-05-25T07:47:34.619Z,41.70
2019-05-25T07:50:10.402Z,41.50
2019-05-25T07:52:43.576Z,41.50
2019-05-25T07:55:16.179Z,41.60
2019-05-25T07:57:49.203Z,42.10
2019-05-25T08:00:21.832Z,42.60
2019-05-25T08:02:57.357Z,42.90
2019-05-25T08:05:29.624Z,43.00
2019-05-25T08:08:03.279Z,43.20
2019-05-25T08:10:36.228Z,43.60
2019-05-25T08:13:09.692Z,43.70
2019-05-25T08:15:42.455Z,43.10
2019-05-25T08:18:13.988Z,42.60
2019-05-25T08:20:47.703Z,42.60
2019-05-25T08:23:20.765Z,42.70
2019-05-25T08:25:53.619Z,42.40
2019-05-25T08:28:32.797Z,41.90
2019-05-25T08:31:01.429Z,41.70
2019-05-25T08:33:35.353Z,41.00
2019-05-25T08:36:07.782Z,40.50
2019-05-25T08:38:39.287Z,40.00
2019-05-25T08:41:11.629Z,39.70
2019-05-25T08:43:44.551Z,39.40
2019-05-25T08:46:17.059Z,39.30
2019-05-25T08:48:50.041Z,39.10
2019-05-25T08:51:21.396Z,38.80
2019-05-25T08:53:53.855Z,38.60
2019-05-25T08:56:26.917Z,38.40
2019-05-25T08:59:02.275Z,38.20
2019-05-25T09:01:34.740Z,38.10
2019-05-25T09:04:08.692Z,37.80
2019-05-25T09:06:43.016Z,37.50
2019-05-25T09:12:10.658Z,37.00
2019-05-25T09:14:44.509Z,36.80
2019-05-25T09:17:17.690Z,36.70
2019-05-25T09:19:52.852Z,36.60
2019-05-25T09:22:26.627Z,36.70
2019-05-25T09:25:00.166Z,36.50
2019-05-25T09:27:32.974Z,36.50
2019-05-25T09:30:08.883Z,36.40
2019-05-25T09:32:41.926Z,36.40
2019-05-25T09:35:15.750Z,36.20
2019-05-25T09:37:48.060Z,36.10
2019-05-25T09:40:20.778Z,36.10
2019-05-25T09:42:52.334Z,35.90
2019-05-25T09:45:24.644Z,35.70
2019-05-25T09:47:57.007Z,35.60
2019-05-25T09:50:28.740Z,35.60
2019-05-25T09:53:01.131Z,35.40
2019-05-25T09:55:32.815Z,35.50
2019-05-25T09:58:05.549Z,35.40
2019-05-25T10:00:40.263Z,35.30
2019-05-25T10:03:13.441Z,35.10
2019-05-25T10:05:47.517Z,35.00
2019-05-25T10:08:21.141Z,34.90
2019-05-25T10:10:55.212Z,34.80
2019-05-25T10:13:27.793Z,34.70
2019-05-25T10:16:00.789Z,34.60
2019-05-25T10:18:32.989Z,34.50
2019-05-25T10:21:06.760Z,34.50
2019-05-25T10:23:38.847Z,34.40
2019-05-25T10:26:11.365Z,34.20
2019-05-25T10:28:45.089Z,34.20
2019-05-25T10:31:17.867Z,34.10
2019-05-25T10:33:49.009Z,34.00
2019-05-25T10:36:22.721Z,33.90
2019-05-25T10:38:55.255Z,33.90
2019-05-25T10:41:36.797Z,33.80
2019-05-25T10:44:11.961Z,33.70
2019-05-25T10:46:45.282Z,33.60
2019-05-25T10:49:18.891Z,33.50
2019-05-25T10:51:53.203Z,33.50
2019-05-25T10:54:25.950Z,33.50
2019-05-25T10:56:59.048Z,33.30
2019-05-25T10:59:31.664Z,33.30
2019-05-25T11:02:06.608Z,33.30
2019-05-25T11:04:39.651Z,33.20
2019-05-25T11:07:12.572Z,33.10
2019-05-25T11:09:45.826Z,33.10
2019-05-25T11:12:18.256Z,33.00
2019-05-25T11:14:50.589Z,32.90
2019-05-25T11:17:23.569Z,33.00
2019-05-25T11:19:56.589Z,32.80
2019-05-25T11:22:29.646Z,32.80
2019-05-25T11:25:01.934Z,32.90
2019-05-25T11:27:34.456Z,32.80
2019-05-25T11:30:10.015Z,32.90
2019-05-25T11:32:43.720Z,32.90
2019-05-25T11:35:17.559Z,32.90
2019-05-25T11:37:50.407Z,32.80
2019-05-25T11:40:24.250Z,32.70
2019-05-25T11:42:57.676Z,32.50
2019-05-25T11:45:31.079Z,32.40
2019-05-25T11:48:04.543Z,32.30
2019-05-25T11:50:38.475Z,32.20
2019-05-25T11:53:11.879Z,32.10
2019-05-25T11:55:44.136Z,32.10
2019-05-25T11:58:16.865Z,32.10
2019-05-25T12:00:51.558Z,32.00
2019-05-25T12:03:22.648Z,31.80
2019-05-25T12:05:54.924Z,31.70
2019-05-25T12:08:26.639Z,31.60
2019-05-25T12:10:58.855Z,31.50
2019-05-25T12:13:32.188Z,31.40
2019-05-25T12:16:05.089Z,31.30
2019-05-25T12:18:36.520Z,31.20
2019-05-25T12:21:08.972Z,31.20
2019-05-25T12:23:45.231Z,31.10
2019-05-25T12:26:18.004Z,31.00
2019-05-25T12:28:52.767Z,31.00
2019-05-25T12:31:25.316Z,31.00
2019-05-25T12:33:58.017Z,30.90
2019-05-25T12:36:31.731Z,30.90
2019-05-25T12:39:06.226Z,30.90
2019-05-25T12:41:39.943Z,30.90
2019-05-25T12:44:14.757Z,30.90
2019-05-25T12:46:47.099Z,31.00
2019-05-25T12:49:26.220Z,30.90
2019-05-25T12:52:00.239Z,30.80
2019-05-25T12:54:33.853Z,30.80
2019-05-25T12:57:06.460Z,30.70
2019-05-25T12:59:43.618Z,30.70
2019-05-25T13:02:17.162Z,30.70
2019-05-25T13:04:50.394Z,30.60
2019-05-25T13:07:23.075Z,30.60
2019-05-25T13:09:57.632Z,30.50
2019-05-25T13:12:30.177Z,30.60
2019-05-25T13:15:04.298Z,30.50
2019-05-25T13:17:38.300Z,30.50
2019-05-25T13:20:10.986Z,30.40
2019-05-25T13:22:43.523Z,30.40
2019-05-25T13:25:16.611Z,30.40
2019-05-25T13:27:49.079Z,30.40
2019-05-25T13:30:20.768Z,30.30
2019-05-25T13:32:53.101Z,30.30
2019-05-25T13:35:26.177Z,30.30
2019-05-25T13:37:57.462Z,30.30
2019-05-25T13:40:30.968Z,30.20
2019-05-25T13:43:03.465Z,30.10
2019-05-25T13:45:36.285Z,30.10
2019-05-25T13:48:07.681Z,30.00
2019-05-25T13:50:41.066Z,30.00
2019-05-25T13:53:13.462Z,29.90
2019-05-25T13:55:46.208Z,30.10
2019-05-25T13:58:18.229Z,30.00
2019-05-25T14:00:50.936Z,30.00
2019-05-25T14:03:25.339Z,29.90
2019-05-25T14:05:58.093Z,30.00
2019-05-25T14:08:31.257Z,30.00
2019-05-25T14:11:04.157Z,29.90
2019-05-25T14:13:38.407Z,29.90
2019-05-25T14:16:11.585Z,29.80
2019-05-25T14:18:45.233Z,29.80
2019-05-25T14:21:17.920Z,29.90
2019-05-25T14:23:50.722Z,29.90
2019-05-25T14:26:25.711Z,29.80
2019-05-25T14:29:01.746Z,29.80
2019-05-25T14:31:44.927Z,29.80
2019-05-25T14:34:10.298Z,29.70
2019-05-25T14:36:42.322Z,29.70
2019-05-25T14:39:17.193Z,29.70
2019-05-25T14:41:51.391Z,29.70
2019-05-25T14:44:24.713Z,29.80
2019-05-25T14:46:58.452Z,29.80
2019-05-25T14:49:36.827Z,29.70
2019-05-25T14:52:12.174Z,29.80
2019-05-25T14:54:45.231Z,29.70
2019-05-25T14:57:17.262Z,29.70
2019-05-25T14:59:50.210Z,29.70
2019-05-25T15:02:23.131Z,29.80
2019-05-25T15:04:54.944Z,29.70
2019-05-25T15:07:27.844Z,29.70
2019-05-25T15:10:00.478Z,29.60
2019-05-25T15:12:33.025Z,29.60
2019-05-25T15:15:06.564Z,29.50
2019-05-25T15:17:40.987Z,29.50
2019-05-25T15:20:13.460Z,29.50
2019-05-25T15:22:47.049Z,29.40
2019-05-25T15:25:20.814Z,29.50
2019-05-25T15:27:53.777Z,29.50
2019-05-25T15:30:26.819Z,29.60
2019-05-25T15:33:01.414Z,29.50
2019-05-25T15:35:35.192Z,29.50
2019-05-25T15:38:06.661Z,29.60
2019-05-25T15:40:39.973Z,29.60
2019-05-25T15:43:13.213Z,29.60
2019-05-25T15:45:45.911Z,29.60
2019-05-25T15:48:21.185Z,29.60
2019-05-25T15:50:53.764Z,29.70
2019-05-25T15:53:26.492Z,29.60
2019-05-25T15:55:59.831Z,29.70
2019-05-25T15:58:45.432Z,29.60
2019-05-25T16:01:18.567Z,29.70
2019-05-25T16:04:11.504Z,29.60
2019-05-25T16:06:47.718Z,29.60
2019-05-25T16:09:20.707Z,29.60
2019-05-25T16:11:54.299Z,29.50
2019-05-25T16:14:27.396Z,29.50
2019-05-25T16:17:00.273Z,29.60
2019-05-25T16:19:35.726Z,29.60
2019-05-25T16:22:09.403Z,29.60
2019-05-25T16:24:47.073Z,29.60
2019-05-25T16:27:19.753Z,29.60
2019-05-25T16:29:53.813Z,29.60
2019-05-25T16:32:26.998Z,29.60
2019-05-25T16:35:00.439Z,29.70
2019-05-25T16:37:34.400Z,29.60
2019-05-25T16:40:08.485Z,29.70
2019-05-25T16:42:41.383Z,29.70
2019-05-25T16:45:12.720Z,29.70
2019-05-25T16:47:45.487Z,29.60
2019-05-25T16:50:17.003Z,29.70
2019-05-25T16:52:49.544Z,29.70
2019-05-25T16:55:20.938Z,29.60
2019-05-25T16:57:53.468Z,29.70
2019-05-25T17:00:30.509Z,29.70
2019-05-25T17:03:03.339Z,29.60
2019-05-25T17:05:36.343Z,29.70
2019-05-25T17:08:08.916Z,29.60
2019-05-25T17:10:41.321Z,29.60
2019-05-25T17:13:13.708Z,29.60
2019-05-25T17:15:46.366Z,29.60
2019-05-25T17:18:19.386Z,29.60
2019-05-25T17:20:52.275Z,29.60
2019-05-25T17:23:24.060Z,29.60
2019-05-25T17:25:56.773Z,29.60
2019-05-25T17:28:29.626Z,29.80
2019-05-25T17:31:02.892Z,29.70
2019-05-25T17:33:45.375Z,29.60
2019-05-25T17:36:12.803Z,29.70
2019-05-25T17:38:42.975Z,29.70
2019-05-25T17:41:15.705Z,29.70
2019-05-25T17:43:48.449Z,29.70
2019-05-25T17:46:21.475Z,29.80
2019-05-25T17:48:52.803Z,29.80
2019-05-25T17:51:26.138Z,29.80
2019-05-25T17:53:58.665Z,29.80
2019-05-25T17:56:31.649Z,29.80
2019-05-25T17:59:02.977Z,29.80
2019-05-25T18:01:35.828Z,29.80
2019-05-25T18:04:08.465Z,29.80
2019-05-25T18:06:39.879Z,29.80
2019-05-25T18:09:12.756Z,29.80
2019-05-25T18:11:45.325Z,29.90
2019-05-25T18:14:18.010Z,29.80
2019-05-25T18:16:50.882Z,29.80
2019-05-25T18:19:23.273Z,29.70
2019-05-25T18:21:58.952Z,29.70
2019-05-25T18:24:30.570Z,29.70
2019-05-25T18:27:04.203Z,29.70
2019-05-25T18:29:38.858Z,29.80
2019-05-25T18:32:11.270Z,29.70
2019-05-25T18:34:43.860Z,29.70
2019-05-25T18:37:16.783Z,29.70
2019-05-25T18:39:49.106Z,29.70
2019-05-25T18:42:21.779Z,29.80
2019-05-25T18:44:54.167Z,29.70
2019-05-25T18:47:26.636Z,29.80
2019-05-25T18:49:59.124Z,29.70
2019-05-25T18:52:32.397Z,29.70
2019-05-25T18:55:06.236Z,29.70
2019-05-25T18:57:40.389Z,29.80
2019-05-25T19:00:13.306Z,29.80
2019-05-25T19:02:46.261Z,29.80
2019-05-25T19:05:18.689Z,29.70
2019-05-25T19:07:51.504Z,29.70
2019-05-25T19:10:24.037Z,29.80
2019-05-25T19:12:56.611Z,29.70
2019-05-25T19:15:28.414Z,29.70
2019-05-25T19:18:01.062Z,29.70
2019-05-25T19:20:34.267Z,29.60
2019-05-25T19:23:05.727Z,29.60
2019-05-25T19:25:38.224Z,29.60
2019-05-25T19:28:10.924Z,29.60
2019-05-25T19:30:43.741Z,29.60
2019-05-25T19:33:16.148Z,29.70
2019-05-25T19:35:49.188Z,29.70
2019-05-25T19:38:22.908Z,29.70
2019-05-25T19:40:55.887Z,29.70
2019-05-25T19:43:28.443Z,29.70
2019-05-25T19:46:00.065Z,29.70
2019-05-25T19:48:32.730Z,29.70
2019-05-25T19:51:04.380Z,29.70
2019-05-25T19:53:37.879Z,29.70
2019-05-25T19:56:10.773Z,29.70
2019-05-25T19:58:42.137Z,29.70
2019-05-25T20:01:14.895Z,29.70
2019-05-25T20:03:46.488Z,29.70
2019-05-25T20:06:19.493Z,29.70
2019-05-25T20:08:50.636Z,29.70
2019-05-25T20:11:23.552Z,29.70
2019-05-25T20:14:30.900Z,29.60
2019-05-25T20:17:04.014Z,29.60
2019-05-25T20:19:36.391Z,29.60
2019-05-25T20:22:09.333Z,29.60
2019-05-25T20:24:41.851Z,29.60
2019-05-25T20:27:13.363Z,29.60
2019-05-25T20:29:45.648Z,29.60
2019-05-25T20:32:18.306Z,29.60
2019-05-25T20:34:51.087Z,29.60
2019-05-25T20:37:23.979Z,29.60
2019-05-25T20:39:57.583Z,29.60
2019-05-25T20:42:30.359Z,29.60
2019-05-25T20:45:02.682Z,29.60
2019-05-25T20:47:35.194Z,29.60
2019-05-25T20:50:11.561Z,29.60
2019-05-25T20:52:44.451Z,29.60
2019-05-25T20:55:16.857Z,29.60
2019-05-25T20:57:49.966Z,29.60
2019-05-25T21:00:24.305Z,29.50
2019-05-25T21:03:05.822Z,29.60
2019-05-25T21:05:31.089Z,29.50
2019-05-25T21:08:03.889Z,29.50
2019-05-25T21:10:36.999Z,29.60
2019-05-25T21:13:08.930Z,29.50
2019-05-25T21:15:41.946Z,29.50
2019-05-25T21:18:15.217Z,29.50
2019-05-25T21:20:47.822Z,29.50
2019-05-25T21:23:20.749Z,29.60
2019-05-25T21:25:53.232Z,29.50
2019-05-25T21:28:26.075Z,29.50
2019-05-25T21:30:57.674Z,29.50
2019-05-25T21:33:30.514Z,29.60
2019-05-25T21:36:08.657Z,29.50
2019-05-25T21:38:37.438Z,29.60
2019-05-25T21:41:10.318Z,29.50
2019-05-25T21:43:42.688Z,29.50
2019-05-25T21:46:15.247Z,29.50
2019-05-25T21:48:47.637Z,29.50
2019-05-25T21:51:20.264Z,29.50
2019-05-25T21:53:51.782Z,29.50
2019-05-25T21:56:24.082Z,29.50
2019-05-25T21:58:56.520Z,29.50
2019-05-25T22:01:29.137Z,29.50
2019-05-25T22:04:01.724Z,29.50
2019-05-25T22:06:34.229Z,29.50
2019-05-25T22:09:08.507Z,29.50
2019-05-25T22:11:41.403Z,29.50
2019-05-25T22:14:14.063Z,29.50
2019-05-25T22:16:47.614Z,29.50
2019-05-25T22:19:20.897Z,29.50
2019-05-25T22:21:53.567Z,29.50
2019-05-25T22:24:26.727Z,29.50
2019-05-25T22:27:01.663Z,29.50
2019-05-25T22:29:34.328Z,29.40
2019-05-25T22:32:06.101Z,29.50
2019-05-25T22:34:38.735Z,29.40
2019-05-25T22:37:11.698Z,29.40
2019-05-25T22:39:44.586Z,29.40
2019-05-25T22:42:17.529Z,29.50
2019-05-25T22:44:50.159Z,29.40
2019-05-25T22:47:23.803Z,29.40
2019-05-25T22:49:56.989Z,29.50
2019-05-25T22:52:29.175Z,29.40
2019-05-25T22:55:01.994Z,29.40
2019-05-25T22:57:34.744Z,29.50
2019-05-25T23:00:11.769Z,29.50
2019-05-25T23:02:45.061Z,29.40
2019-05-25T23:05:18.044Z,29.40
2019-05-25T23:07:51.783Z,29.50
2019-05-25T23:10:24.706Z,29.60
2019-05-25T23:12:57.176Z,29.60
2019-05-25T23:15:28.831Z,29.60
2019-05-25T23:18:01.413Z,29.60
2019-05-25T23:20:36.407Z,29.60
2019-05-25T23:23:07.489Z,29.60
2019-05-25T23:25:39.867Z,29.70
2019-05-25T23:28:19.751Z,29.70
2019-05-25T23:30:52.427Z,29.70
2019-05-25T23:33:25.454Z,29.80
2019-05-25T23:35:57.944Z,29.80
2019-05-25T23:38:30.320Z,29.80
2019-05-25T23:41:03.351Z,30.00
2019-05-25T23:43:35.656Z,30.00
2019-05-25T23:46:08.056Z,30.10
2019-05-25T23:48:40.515Z,30.20
2019-05-25T23:51:13.456Z,30.20
2019-05-25T23:53:46.372Z,30.30
2019-05-25T23:56:19.105Z,30.30
2019-05-25T23:58:52.639Z,30.30
